x

Port Orford - 15 Nm West Of Port Orford, Or (46015) Wave Buoy

2:50pm - Wed 24th Aug 2016 All times are PDT. -7 hours from GMT.

  • Sig Wave height 4.9ft
  • Swell Direction
  • Peak Period 8s
  • Average Period 6s
  • Wind
    22mph, 27mph gusts
  • Sea Temp 50°f
  • Air Temp 54°f
  • Sea Pressure 1018.6mb
  • Port Orford - 15 Nm West Of Port Orford, Or
  • Port Orford - 15 Nm West Of Port Orford, Or

More Historic Weather Station data

Upgrade to MSW Pro to gain access to the past 30 days of data for over 8000 Wavebouys and Weather Stations around the globe.

Join Pro

Comparision Forecast

View Surf forecast
   
Wed 08/24 2:50pm 5ft 8s 6s 22 27 mph 1018.6mb 50f 54f
1:50pm 5ft 7s 5s 20 22 mph 1019.4mb 50f 53f
12:50pm 5ft 7s 5s 22 25 mph 1019.8mb 49f 53f
11:50am 5ft 8s 5s 22 27 mph 1020.3mb 49f 52f
10:50am 5.5ft 8s 6s 22 27 mph 1020.4mb 49f 52f
9:50am 5ft 7s 5s 22 25 mph 1020.4mb 49f 51f
8:50am 5ft 7s 5s 22 25 mph 1020.4mb 49f 52f
7:50am 4.5ft 7s 5s 20 25 mph 1020.3mb 49f 52f
6:50am 4.5ft 7s 5s 20 25 mph 1019.8mb 49f 52f
5:50am 5ft 7s 6s 18 22 mph 1019.9mb 49f 52f
4:50am 4.5ft 7s 5s 16 18 mph 1019.9mb 49f 52f
3:50am 4.5ft 7s 5s 18 20 mph 1019.8mb 49f 52f
2:50am 4.5ft 7s 5s 18 20 mph 1019.9mb 49f 52f
1:50am 4.5ft 7s 6s 18 20 mph 1019.9mb 49f 51f
12:50am 4.5ft 7s 5s 16 20 mph 1020.1mb 49f 50f
Tue 08/23 10:50pm 5ft 7s 5s 16 18 mph 1020.8mb 49f 51f
9:50pm 5ft 7s 5s 18 22 mph 1020.9mb 49f 51f
8:50pm 5.5ft 6s 5s 20 25 mph 1020.4mb 49f 51f
7:50pm 5ft 7s 5s 22 25 mph 1020.1mb 49f 51f
6:50pm 6ft 7s 6s 22 25 mph 1019.8mb 49f 51f
5:50pm 6ft 7s 5s 22 25 mph 1020mb 49f 51f
4:50pm 5.5ft 7s 5s 20 25 mph 1020mb 49f 51f
3:50pm 6ft 7s 5s 25 29 mph 1019.9mb 49f 52f
2:50pm 6ft 7s 6s 20 25 mph 1020.2mb 49f 51f
1:50pm 6ft 7s 6s 22 27 mph 1020.4mb 49f 51f
12:50pm 6ft 7s 5s 25 29 mph 1020.3mb 49f 51f
11:50am 6ft 7s 5s 25 29 mph 1020.4mb 49f 51f
10:50am 6ft 7s 5s 25 31 mph 1020.2mb 49f 51f
9:50am 6ft 7s 5s 25 29 mph 1019.8mb 49f 51f
8:50am 6.5ft 7s 5s 27 31 mph 1019.2mb 49f 51f
7:50am 6ft 8s 5s 25 34 mph 1018.9mb 49f 52f
6:50am 6ft 8s 5s 25 31 mph 1018.3mb 49f 52f
5:50am 6.5ft 7s 5s 27 31 mph 1017.5mb 49f 52f
4:50am  -   -   -  25 29 mph 1017.2mb 49f 52f
3:50am  -   -   -  25 27 mph 1017.1mb 49f 52f
2:50am  -   -   -  22 27 mph 1017.3mb 49f 52f
1:50am  -   -   -  20 25 mph 1017.7mb 49f 52f
12:50am  -   -   -  18 20 mph 1017.8mb 49f 52f
Mon 08/22 11:50pm  -   -   -  18 20 mph 1018.1mb 49f 53f
10:50pm  -   -   -  16 20 mph 1017.9mb 49f 52f
9:50pm  -   -   -  18 20 mph 1017.6mb 49f 52f
8:50pm  -   -   -  18 22 mph 1016.9mb 49f 53f
7:50pm  -   -   -  20 22 mph 1016.4mb 49f 53f
6:50pm  -   -   -  20 25 mph 1016.1mb 49f 54f
5:50pm  -   -   -  22 25 mph 1016.2mb 49f 54f
4:50pm  -   -   -  25 29 mph 1015.8mb 49f 55f
3:50pm  -   -   -  25 29 mph 1015.9mb 49f 55f
2:50pm  -   -   -  25 29 mph 1015.9mb 49f 55f
1:50pm  -   -   -  27 31 mph 1015.7mb 49f 54f
12:50pm  -   -   -  27 31 mph 1015.7mb 50f 54f
11:50am  -   -   -  27 31 mph 1016mb 50f 54f
10:50am 6ft 8s 5s 25 29 mph 1016mb 50f 53f
8:50am 6.5ft 6s 5s 25 29 mph 1015.9mb 50f 53f
7:50am 7ft 8s 5s 25 29 mph 1015.5mb 50f 53f
6:50am 7ft 7s 6s 25 31 mph 1015.5mb 50f 53f
5:50am 6ft 6s 5s 25 29 mph 1015mb 50f 53f
4:50am 6ft 8s 6s 22 27 mph 1015mb 50f 53f
3:50am 5ft 8s 6s 20 25 mph 1015.4mb 50f 53f
2:50am 6ft 8s 6s 18 20 mph 1015.7mb 50f 53f
1:50am 5.5ft 8s 6s 13 18 mph 1015.8mb 50f 52f
12:50am 5ft 9s 6s 16 20 mph 1015.5mb 50f 53f
Sun 08/21 11:50pm 5.5ft 8s 6s 16 18 mph 1015.5mb 51f 53f
10:50pm 5ft 9s 6s 16
mph
1015.5mb 51f 53f
9:50pm 5ft 8s 6s 18 20 mph 1015.3mb 51f 54f
7:50pm 5ft 8s 5s 22 25 mph 1014.2mb 52f 56f
6:50pm 5ft 8s 6s 22 25 mph 1014mb 52f 56f
5:50pm 5ft 15s 6s 20 22 mph 1014.1mb 52f 56f
4:50pm 5ft 8s 6s 22 25 mph 1014mb 52f 56f
3:50pm 6ft 8s 6s 20 25 mph 1014.1mb 53f 55f
2:50pm 5.5ft 8s 6s 22 27 mph 1014.2mb 53f 55f
1:50pm 6ft 8s 7s 18 22 mph 1015mb 53f 55f
12:50pm 6ft 8s 7s 13 16 mph 1015.6mb 53f 55f
11:50am 6ft 8s 8s 11 13 mph 1015.9mb 53f 55f
10:50am 5.5ft 9s 7s 9 11 mph 1015.7mb 53f 54f
9:50am 6ft 9s 7s 7 9 mph 1015.5mb 53f 53f
8:50am 6ft 9s 7s 7 11 mph 1015.1mb 52f 53f
7:50am 6ft 8s 8s 9
mph
1014.8mb 52f 53f
6:50am  -   -   -  7 9 mph 1014.4mb 53f 53f
5:50am  -   -   -  7 9 mph 1013.9mb 53f 52f
4:50am  -   -   -  7 9 mph 1013.9mb 53f 52f
3:50am  -   -   -  7
mph
1013.8mb 52f 52f
2:50am  -   -   -  4
mph
1013.8mb 52f 52f
1:50am  -   -   -  2 4 mph 1014.2mb 53f 51f
12:50am  -   -   -  4
mph
1014.3mb 53f 51f
Sat 08/20 11:50pm 5.5ft 9s 8s 4 7 mph 1014.5mb 52f 52f